Tiempo atmosférico en la estación meteorológica de Calatayud, Zaragoza (600 m.)



Fecha
DESCASC
Temp. máxima en grados centígrados (hora)
DESCASC
Temp. mínima en grados centígrados (hora)
DESCASC
Temp. media en grados centígrados
DESCASC
Racha de viento máxima en m/sg (hora)
DESCASC
Velocidad máxima media en intervalos de 10 minutos(hora)
DESCASC
Precipitaciones diarias en mm
DESCASC
Precipitaciones de 00:00 a 06:00 en mm
DESCASC
Precipitaciones de 06:00 a 12:00 en mm
DESCASC
Precipitaciones de 12:00 a 18:00 en mm
DESCASC
Precipitaciones de 18:00 a 24:00 en mm
DESCASC
23-05-2018 25.8 (15:40) 11.9 (07:00) 18.8 11.67 (17:50) 6.67 (17:40) 4.4 0 0 0 4.4
22-05-2018 23.6 (14:30) 10.2 (06:40) 16.9 11.94 (16:20) 7.22 (16:20) 0 0 0 0 0
21-05-2018 25.1 (16:00) 13.2 (07:50) 19.2 21.11 (16:10) 10.28 (16:10) 2.6 0 0 2.4 0.2
20-05-2018 23.3 (18:40) 9.8 (00:00) 16.5 10 (15:30) 5.28 (19:50) 0 0 0 0 0
19-05-2018 23.2 (15:00) 9.4 (07:20) 16.3 9.72 (15:30) 6.11 (15:30) 0.2 0 0 0 0.2
18-05-2018 22.7 (15:30) 10.8 (00:00) 16.8 6.67 (16:00) 3.89 (19:10) 8.4 0 0 0.2 8.2
17-05-2018 24.4 (15:40) 9.6 (00:00) 17 12.78 (18:00) 7.5 (17:30) 0 0 0 0 0
16-05-2018 22.4 (14:50) 6.5 (00:00) 14.4 11.11 (17:40) 6.94 (16:40) 0 0 0 0 0
15-05-2018 19.3 (17:30) 5.4 (00:00) 12.3 13.61 (13:50) 8.33 (18:20) 0 0 0 0 0
14-05-2018 18.6 (17:50) 7 (00:00) 12.8 12.22 (15:30) 6.94 (17:20) 0 0 0 0 0
13-05-2018 16.8 (18:20) 1.9 (00:00) 9.3 12.22 (17:50) 7.22 (18:10) 0 0 0 0 0
12-05-2018 21.5 (13:20) 7.3 (00:00) 14.4 12.5 (16:40) 7.5 (19:00) 1.2 0 0 0.4 0.8
11-05-2018 26.6 (15:10) 6.4 (07:20) 16.5 10.83 (16:30) 6.67 (19:50) 0 0 0 0 0
10-05-2018 21 (14:20) 11.8 (00:00) 16.4 10.56 (17:10) 6.39 (17:30) 0 0 0 0 0
09-05-2018 25.4 (16:30) 9 (00:00) 17.2 12.78 (20:10) 8.06 (20:00) 0 0 0 0 0
08-05-2018 25 (16:10) 11 (00:00) 18 11.11 (15:50) 6.94 (19:00) 0 0 0 0 0
07-05-2018 25 (18:10) 13.4 (00:00) 19.2 6.94 (19:50) 4.72 (19:40) 0 0 0 0 0
06-05-2018 24.9 (17:20) 9.5 (06:30) 17.2 9.17 (16:00) 5.56 (18:10) 0 0 0 0 0
05-05-2018 23.2 (16:20) 5.2 (00:00) 14.2 11.11 (19:20) 7.22 (20:40) 0 0 0 0 0
04-05-2018 19.9 (15:10) 2.1 (00:00) 11 11.11 (17:20) 6.94 (18:40) 0 0 0 0 0
03-05-2018 16 (18:10) 8.3 (00:00) 12.2 14.17 (14:20) 9.44 (14:20) 0 0 0 0 0
02-05-2018 18.6 (15:30) 1.9 (00:00) 10.3 13.33 (13:20) 7.78 (12:40) 0 0 0 0 0
01-05-2018 15.8 (15:50) 2.6 (08:00) 9.2 8.61 (20:20) 5.83 (20:10) 0 0 0 0 0
30-04-2018 12.3 (14:10) 3.2 (00:00) 7.8 9.72 (14:30) 6.67 (17:10) 0 0 0 0 0
29-04-2018 14.5 (17:10) 7.1 (00:00) 10.8 15.83 (17:10) 10 (14:10) 0.4 0 0.2 0.2 0
28-04-2018 21.6 (16:10) 8.5 (00:00) 15.1 13.89 (15:40) 7.22 (14:50) 0.6 0 0 0 0.6
27-04-2018 24.1 (16:00) 9.9 (00:00) 17 10.28 (19:30) 6.94 (19:30) 0.6 0 0 0.6 0
26-04-2018 22.7 (16:20) 8 (00:00) 15.4 9.44 (00:10) 6.39 (18:10) 0 0 0 0 0
25-04-2018 24.8 (17:50) 9.3 (00:00) 17 12.78 (21:20) 8.33 (21:30) 0 0 0 0 0

Gráficas

Temp. máximas Temp. mínimas Temp. medias Precipitaciones Rachas de viento máximas Velocidades máximas media en intervalos de 10 minutos

Datos horarios

Fecha y hora oficial Temperatura (ºC) Velocidad del viento (km/h) Dirección del viento Racha (km/h) Dirección de racha Precipitación (mm) Presión (hPa) Tendencia (hPa) Humedad (%)
2018-05-24 23:00:00 20.8 18 Nordeste 36 Nordeste 0 -- -- 57
2018-05-24 22:00:00 21.5 22 Nordeste 36 Nordeste 0 -- -- 55
2018-05-24 21:00:00 22.5 18 Nordeste 39 Nordeste 0.2 -- -- 52
2018-05-24 20:00:00 24.8 20 Nordeste 35 Nordeste 0 -- -- 38
2018-05-24 19:00:00 24.9 22 Nordeste 36 Nordeste 0 -- -- 43
2018-05-24 18:00:00 24.7 17 Norte 28 Norte 0 -- -- 47
2018-05-24 17:00:00 23.7 18 Norte 28 Norte 0 -- -- 54
2018-05-24 16:00:00 22.6 15 Nordeste 36 Nordeste 0 -- -- 57
2018-05-24 15:00:00 25 18 Nordeste 29 Nordeste 0 -- -- 48
2018-05-24 14:00:00 25.4 11 Norte 22 Norte 0 -- -- 45
2018-05-24 13:00:00 23.6 6 Norte 14 Norte 0 -- -- 48
2018-05-24 12:00:00 21.5 7 Nordeste 13 Nordeste 0 -- -- 55
2018-05-24 11:00:00 18.7 5 Noroeste 14 Noroeste 0 -- -- 76
2018-05-24 10:00:00 17.4 4 Este 14 Este 0 -- -- 81
2018-05-24 09:00:00 15 3 Oeste 8 Sudoeste 0 -- -- 91
2018-05-24 08:00:00 13.8 3 Sur 7 Sur 0 -- -- 92
2018-05-24 07:00:00 13.3 6 Sudoeste 10 Sudoeste 0 -- -- 91
2018-05-24 06:00:00 13.9 4 Nordeste 10 Nordeste 0 -- -- 91
2018-05-24 05:00:00 14.3 3 Sudeste 7 Sudoeste 0 -- -- 90
2018-05-24 04:00:00 14.6 3 Sudoeste 9 Oeste 0 -- -- 90
2018-05-24 03:00:00 14.9 0 Calma 9 Este 0 -- -- 89
2018-05-24 02:00:00 15.2 6 Norte 9 Nordeste 0 -- -- 89
2018-05-24 01:00:00 15.3 3 Sudeste 7 Noroeste 0 -- -- 88
2018-05-24 00:00:00 15.8 3 Noroeste 11 Nordeste 0.2 -- -- 87
2018-05-23 23:00:00 16 7 Este 16 Nordeste 0.2 -- -- 87
2018-05-23 22:00:00 16.3 3 Noroeste 11 Nordeste 0 -- -- 86
2018-05-23 21:00:00 16.4 4 Sudoeste 16 Este 0.6 -- -- 84
2018-05-23 20:00:00 16.9 15 Nordeste 31 Nordeste 1 -- -- 80
2018-05-23 19:00:00 17.9 10 Nordeste 31 Este 2.4 -- -- 75
2018-05-23 18:00:00 21.5 15 Este 42 Norte 0 -- -- 53
2018-05-23 17:00:00 24.2 16 Nordeste 32 Nordeste 0 -- -- 40
2018-05-23 16:00:00 25.6 18 Norte 28 Norte 0 -- -- 37
2018-05-23 15:00:00 24.5 14 Nordeste 22 Nordeste 0 -- -- 36
2018-05-23 14:00:00 25 10 Norte 19 Nordeste 0 -- -- 36
2018-05-23 13:00:00 23.2 8 Nordeste 19 Nordeste 0 -- -- 40
2018-05-23 12:00:00 21.6 5 Nordeste 12 Noroeste 0 -- -- 46
2018-05-23 11:00:00 19.3 3 Norte 8 Norte 0 -- -- 54
2018-05-23 10:00:00 16.8 3 Norte 6 Oeste 0 -- -- 64
2018-05-23 09:00:00 14.3 3 Oeste 8 Oeste 0 -- -- 75
2018-05-23 08:00:00 13.1 3 Nordeste 5 Oeste 0 -- -- 81
2018-05-23 07:00:00 11.9 2 Oeste 8 Nordeste 0 -- -- 83
2018-05-23 06:00:00 12.1 6 Nordeste 10 Nordeste 0 -- -- 83
2018-05-23 05:00:00 12.2 4 Sudoeste 7 Sudoeste 0 -- -- 82
2018-05-23 04:00:00 12.6 4 Oeste 5 Noroeste 0 -- -- 81
2018-05-23 03:00:00 13.4 3 Sur 9 Oeste 0 -- -- 78
2018-05-23 02:00:00 14 4 Sudeste 10 Sur 0 -- -- 72
2018-05-23 01:00:00 15 5 Oeste 10 Sudeste 0 -- -- 66
2018-05-23 00:00:00 16.2 3 Sudoeste 6 Sudoeste 0 -- -- 66
2018-05-22 23:00:00 18 5 Nordeste 6 Nordeste 0 -- -- 56
2018-05-22 22:00:00 20 3 Este 4 Este 0 -- -- 46
2018-05-22 21:00:00 22.1 0 Calma 14 Norte 0 -- -- 38
2018-05-22 20:00:00 23.2 8 Nordeste 23 Norte 0 -- -- 34
2018-05-22 19:00:00 22.9 10 Nordeste 17 Nordeste 0 -- -- 35
2018-05-22 18:00:00 22.5 6 Norte 23 Norte 0 -- -- 34
2018-05-22 17:00:00 21.5 12 Norte 43 Norte 0 -- -- 45
2018-05-22 16:00:00 23.5 8 Nordeste 23 Nordeste 0 -- -- 36
2018-05-22 15:00:00 23.1 8 Norte 20 Nordeste 0 -- -- 38
2018-05-22 14:00:00 22.8 8 Norte 20 Norte 0 -- -- 41
2018-05-22 13:00:00 21.3 5 Sudoeste 13 Este 0 -- -- 52
2018-05-22 12:00:00 19.9 6 Nordeste 13 Norte 0 -- -- 55
2018-05-22 11:00:00 17.6 4 Oeste 9 Sudoeste 0 -- -- 63
2018-05-22 10:00:00 15.3 3 Noroeste 9 Nordeste 0 -- -- 73
2018-05-22 09:00:00 13 2 Sudoeste 6 Nordeste 0 -- -- 84
2018-05-22 08:00:00 10.9 4 Sudeste 8 Sur 0 -- -- 88
2018-05-22 07:00:00 10.5 5 Este 8 Sur 0 -- -- 89
2018-05-22 06:00:00 10.9 5 Sur 9 Sur 0 -- -- 88
2018-05-22 05:00:00 11.5 3 Este 6 Nordeste 0 -- -- 88
2018-05-22 04:00:00 11.9 2 Sudeste 8 Sur 0 -- -- 87
2018-05-22 03:00:00 12.2 8 Sur 11 Sur 0 -- -- 86
2018-05-22 02:00:00 13.1 2 Sur 3 Sur 0 -- -- 86
2018-05-22 01:00:00 13.2 4 Sur 8 Sur 0 -- -- 87
2018-05-22 00:00:00 13.6 5 Nordeste 12 Nordeste 0 -- -- 86
2018-05-21 23:00:00 13.7 5 Sudoeste 9 Sur 0 -- -- 84
2018-05-21 22:00:00 14.7 3 Noroeste 9 Nordeste 0 -- -- 79
2018-05-21 21:00:00 15.6 8 Nordeste 19 Norte 0 -- -- 76
2018-05-21 20:00:00 15.8 9 Nordeste 16 Nordeste 0 -- -- 78
2018-05-21 19:00:00 14.6 4 Oeste 8 Oeste 0.2 -- -- 83
2018-05-21 18:00:00 14.2 4 Este 11 Sur 2 -- -- 84
2018-05-21 17:00:00 14.1 5 Sur 76 Oeste 0.4 -- -- 77
2018-05-21 16:00:00 24.7 16 Sur 50 Sudoeste 0 -- -- 31
2018-05-21 15:00:00 23 15 Sur 23 Sudeste 0 -- -- 35
2018-05-21 14:00:00 22.7 8 Sur 21 Sur 0 -- -- 39
2018-05-21 13:00:00 21.6 6 Nordeste 17 Norte 0 -- -- 46
2018-05-21 12:00:00 19.9 6 Noroeste 14 Nordeste 0 -- -- 53
2018-05-21 11:00:00 17.3 3 Sur 8 Sur 0 -- -- 60
2018-05-21 10:00:00 15.3 3 Sur 7 Sur 0 -- -- 75
2018-05-21 09:00:00 14.1 4 Sur 6 Sur 0 -- -- 80
2018-05-21 08:00:00 13.4 3 Sur 6 Sur 0 -- -- 82
2018-05-21 07:00:00 13.6 4 Sudoeste 6 Sur 0 -- -- 79
2018-05-21 06:00:00 13.9 4 Nordeste 10 Sur 0 -- -- 80
2018-05-21 05:00:00 14 6 Sur 10 Sur 0 -- -- 77
2018-05-21 04:00:00 14.3 0 Calma 6 Sudoeste 0 -- -- 76
2018-05-21 03:00:00 14.8 0 Calma 9 Nordeste 0 -- -- 73
2018-05-21 02:00:00 15 6 Nordeste 9 Nordeste 0 -- -- 72
2018-05-21 01:00:00 15.1 2 Sudoeste 9 Sudoeste 0 -- -- 69
2018-05-21 00:00:00 15.9 2 Sudeste 9 Sudeste 0 -- -- 65
2018-05-20 23:00:00 16.2 5 Este 9 Sur 0 -- -- 62
2018-05-20 22:00:00 16.2 4 Sudeste 8 Sudeste 0 -- -- 63
2018-05-20 21:00:00 17.4 5 Sur 23 Sur 0 -- -- 60
2018-05-20 20:00:00 19 14 Sur 32 Sur 0 -- -- 48
2018-05-20 19:00:00 23.1 5 Noroeste 15 Noroeste 0 -- -- 33
2018-05-20 18:00:00 22.1 6 Norte 15 Nordeste 0 -- -- 40
2018-05-20 17:00:00 20.1 14 Nordeste 23 Nordeste 0 -- -- 50
2018-05-20 16:00:00 18.8 10 Sudoeste 36 Sur 0 -- -- 49
2018-05-20 15:00:00 20.8 5 Oeste 22 Norte 0 -- -- 42
2018-05-20 14:00:00 21.3 12 Norte 27 Nordeste 0 -- -- 41
2018-05-20 13:00:00 20.1 12 Nordeste 25 Norte 0 -- -- 45
2018-05-20 12:00:00 19.1 7 Nordeste 20 Este 0 -- -- 45
2018-05-20 11:00:00 17.6 10 Nordeste 17 Nordeste 0 -- -- 52
2018-05-20 10:00:00 14.8 2 Sudoeste 7 Nordeste 0 -- -- 64
2018-05-20 09:00:00 11.3 2 Noroeste 4 Norte 0 -- -- 85
2018-05-20 08:00:00 10.4 0 Calma 5 Sudoeste 0 -- -- 87
2018-05-20 07:00:00 10.1 4 Sur 6 Sur 0 -- -- 87
2018-05-20 06:00:00 10.9 3 Sudeste 6 Sudoeste 0 -- -- 86
2018-05-20 05:00:00 11.5 3 Este 8 Nordeste 0 -- -- 80
2018-05-20 04:00:00 12.4 3 Nordeste 7 Sudeste 0 -- -- 81
2018-05-20 03:00:00 13.3 4 Sudoeste 8 Sur 0 -- -- 77
2018-05-20 02:00:00 14.3 3 Sur 18 Este 0 -- -- 65
2018-05-20 01:00:00 16 11 Este 20 Nordeste 0 -- -- 55
2018-05-20 00:00:00 16.1 14 Nordeste 21 Nordeste 0 -- -- 55
2018-05-19 23:00:00 16.2 8 Nordeste 10 Nordeste 0 -- -- 73
2018-05-19 22:00:00 16.8 2 Este 14 Este 0.2 -- -- 69
2018-05-19 21:00:00 17.6 9 Este 19 Nordeste 0 -- -- 62
2018-05-19 20:00:00 19.3 9 Sudeste 30 Sur 0 -- -- 58
2018-05-19 19:00:00 19.2 15 Sudeste 27 Sudeste 0 -- -- 53
2018-05-19 18:00:00 19.7 17 Sur 26 Sudeste 0 -- -- 49
2018-05-19 17:00:00 21.1 11 Sudeste 29 Norte 0 -- -- 48
2018-05-19 16:00:00 21.5 15 Noroeste 35 Noroeste 0 -- -- 45
2018-05-19 15:00:00 23.2 7 Noroeste 23 Nordeste 0 -- -- 39
2018-05-19 14:00:00 22.7 6 Nordeste 15 Norte 0 -- -- 42
2018-05-19 13:00:00 20.1 6 Noroeste 13 Noroeste 0 -- -- 53
2018-05-19 12:00:00 18.3 3 Sudoeste 9 Oeste 0 -- -- 63
2018-05-19 11:00:00 15.9 3 Noroeste 6 Nordeste 0 -- -- 73
2018-05-19 10:00:00 12.9 3 Oeste 5 Oeste 0 -- -- 84
2018-05-19 09:00:00 12 2 Oeste 6 Norte 0 -- -- 85
2018-05-19 08:00:00 10.2 0 Calma 8 Sur 0 -- -- 89
2018-05-19 07:00:00 9.5 6 Sur 9 Sur 0 -- -- 89
2018-05-19 06:00:00 9.7 3 Este 7 Sur 0 -- -- 89
2018-05-19 05:00:00 9.6 5 Sur 10 Sur 0 -- -- 88
2018-05-19 04:00:00 10.1 5 Sur 10 Sur 0 -- -- 86
2018-05-19 03:00:00 10.8 0 Calma 9 Sur 0 -- -- 86
2018-05-19 02:00:00 11.2 8 Sur 12 Sur 0 -- -- 86
2018-05-19 01:00:00 11.7 4 Norte 10 Sudeste 0 -- -- 87
2018-05-19 00:00:00 13 6 Sudeste 13 Sur 0 -- -- 81
2018-05-18 23:00:00 13.6 4 Sur 9 Sur 0 -- -- 80
2018-05-18 22:00:00 13.8 8 Sur 12 Sur 0 -- -- 80
2018-05-18 21:00:00 14.1 2 Sudeste 14 Oeste 0 -- -- 81
2018-05-18 20:00:00 14.4 6 Noroeste 21 Noroeste 5 -- -- 76
2018-05-18 19:00:00 17.1 8 Sudoeste 22 Sudeste 3.2 -- -- 68
2018-05-18 18:00:00 20.7 6 Oeste 10 Sudoeste 0 -- -- 52
2018-05-18 17:00:00 20.3 7 Sur 17 Sur 0.2 -- -- 49
2018-05-18 16:00:00 20.2 14 Sur 24 Sur 0 -- -- 46
2018-05-18 15:00:00 20.9 10 Este 22 Este 0 -- -- 42
2018-05-18 14:00:00 21.3 5 Sudeste 16 Nordeste 0 -- -- 45
2018-05-18 13:00:00 19.9 4 Sudeste 15 Este 0 -- -- 51
2018-05-18 12:00:00 17.9 5 Sudoeste 12 Sudoeste 0 -- -- 59
2018-05-18 11:00:00 15.8 4 Oeste 8 Sur 0 -- -- 66
2018-05-18 10:00:00 14.5 3 Sudeste 7 Norte 0 -- -- 69
2018-05-18 09:00:00 13 2 Norte 5 Norte 0 -- -- 76
2018-05-18 08:00:00 11.3 3 Sur 6 Oeste 0 -- -- 82
2018-05-18 07:00:00 11 3 Nordeste 7 Sudoeste 0 -- -- 82
2018-05-18 06:00:00 11.5 0 Calma 10 Sur 0 -- -- 81
2018-05-18 05:00:00 12.4 2 Este 13 Sur 0 -- -- 80
2018-05-18 04:00:00 13.5 3 Oeste 10 Este 0 -- -- 74
2018-05-18 03:00:00 14.3 2 Sur 15 Sur 0 -- -- 73
2018-05-18 02:00:00 14.8 5 Sur 9 Sur 0 -- -- 68
2018-05-18 01:00:00 15.3 5 Este 11 Norte 0 -- -- 64
2018-05-18 00:00:00 15.7 3 Oeste 17 Sudeste 0 -- -- 61
2018-05-17 23:00:00 16.2 6 Sur 15 Sur 0 -- -- 64
2018-05-17 22:00:00 17.2 8 Oeste 23 Sur 0 -- -- 55
2018-05-17 21:00:00 18.4 8 Sur 31 Noroeste 0 -- -- 45
2018-05-17 20:00:00 19.1 19 Oeste 37 Noroeste 0 -- -- 42
2018-05-17 19:00:00 21.6 20 Nordeste 40 Este 0 -- -- 35
2018-05-17 18:00:00 23.3 23 Nordeste 46 Este 0 -- -- 31
2018-05-17 17:00:00 24.1 21 Nordeste 40 Nordeste 0 -- -- 31
2018-05-17 16:00:00 24 17 Nordeste 31 Nordeste 0 -- -- 29
2018-05-17 15:00:00 23.5 15 Nordeste 25 Nordeste 0 -- -- 32
2018-05-17 14:00:00 23.4 8 Nordeste 21 Nordeste 0 -- -- 31
2018-05-17 13:00:00 21.6 10 Nordeste 17 Nordeste 0 -- -- 36
2018-05-17 12:00:00 19.5 8 Nordeste 14 Nordeste 0 -- -- 43
2018-05-17 11:00:00 16.9 9 Nordeste 16 Nordeste 0 -- -- 55
2018-05-17 10:00:00 14.3 4 Norte 9 Nordeste 0 -- -- 64
2018-05-17 09:00:00 10.9 4 Nordeste 8 Este 0 -- -- 76
2018-05-17 08:00:00 10 0 Calma 4 Noroeste 0 -- -- 79
2018-05-17 07:00:00 9.6 2 Nordeste 5 Norte 0 -- -- 80
2018-05-17 06:00:00 10.1 0 Calma 5 Sur 0 -- -- 78
2018-05-17 05:00:00 10.6 3 Sur 6 Este 0 -- -- 76
2018-05-17 04:00:00 11.4 3 Este 6 Sudeste 0 -- -- 72
2018-05-17 03:00:00 12.4 4 Nordeste 8 Nordeste 0 -- -- 70
2018-05-17 02:00:00 13 4 Sudeste 8 Este 0 -- -- 68
2018-05-17 01:00:00 14.4 4 Sudeste 11 Norte 0 -- -- 62
2018-05-17 00:00:00 15.5 4 Este 21 Nordeste 0 -- -- 59
2018-05-16 23:00:00 16.7 10 Nordeste 21 Nordeste 0 -- -- 57
2018-05-16 22:00:00 17.8 16 Nordeste 28 Nordeste 0 -- -- 53
2018-05-16 21:00:00 20 14 Nordeste 33 Nordeste 0 -- -- 45
2018-05-16 20:00:00 21.3 21 Nordeste 32 Nordeste 0 -- -- 35
2018-05-16 19:00:00 21.9 21 Nordeste 36 Nordeste 0 -- -- 33
2018-05-16 18:00:00 22.1 22 Nordeste 40 Nordeste 0 -- -- 34
2018-05-16 17:00:00 22.4 23 Nordeste 38 Nordeste 0 -- -- 34
2018-05-16 16:00:00 21.9 22 Nordeste 36 Nordeste 0 -- -- 33
2018-05-16 15:00:00 22.1 19 Nordeste 31 Norte 0 -- -- 34
2018-05-16 14:00:00 21 12 Nordeste 25 Norte 0 -- -- 36
2018-05-16 13:00:00 19.5 10 Nordeste 18 Nordeste 0 -- -- 38
2018-05-16 12:00:00 16.8 6 Nordeste 15 Nordeste 0 -- -- 45
2018-05-16 11:00:00 14.7 3 Nordeste 9 Nordeste 0 -- -- 52
2018-05-16 10:00:00 12 3 Nordeste 9 Este 0 -- -- 59
2018-05-16 09:00:00 9.1 3 Norte 6 Norte 0 -- -- 73
2018-05-16 08:00:00 6.7 4 Sudoeste 5 Sudoeste 0 -- -- 79
2018-05-16 07:00:00 6.7 0 Calma 4 Este 0 -- -- 80
2018-05-16 06:00:00 7.2 4 Este 9 Sur 0 -- -- 78
2018-05-16 05:00:00 7.8 5 Sudeste 11 Sur 0 -- -- 79
2018-05-16 04:00:00 7.4 7 Sudoeste 12 Sur 0 -- -- 80
2018-05-16 03:00:00 8.1 4 Sur 8 Sur 0 -- -- 77
2018-05-16 02:00:00 9.7 3 Sudoeste 6 Sudoeste 0 -- -- 71
2018-05-16 01:00:00 11 4 Oeste 6 Oeste 0 -- -- 66
2018-05-16 00:00:00 12.2 2 Noroeste 14 Norte 0 -- -- 61
2018-05-15 23:00:00 13.5 9 Nordeste 28 Este 0 -- -- 57
2018-05-15 22:00:00 13.9 18 Nordeste 30 Nordeste 0 -- -- 55
2018-05-15 21:00:00 15.3 20 Nordeste 38 Este 0 -- -- 50
2018-05-15 20:00:00 16.8 24 Nordeste 42 Este 0 -- -- 47
2018-05-15 19:00:00 18 26 Nordeste 47 Nordeste 0 -- -- 44
2018-05-15 18:00:00 19.1 26 Nordeste 46 Nordeste 0 -- -- 39
2018-05-15 17:00:00 18.9 27 Nordeste 41 Este 0 -- -- 38
2018-05-15 16:00:00 18.7 21 Nordeste 48 Nordeste 0 -- -- 37
2018-05-15 15:00:00 17.5 23 Nordeste 44 Nordeste 0 -- -- 40
2018-05-15 14:00:00 16.9 28 Nordeste 49 Nordeste 0 -- -- 40
2018-05-15 13:00:00 16.4 26 Nordeste 41 Nordeste 0 -- -- 40
2018-05-15 12:00:00 15.2 4 Norte 15 Norte 0 -- -- 40
2018-05-15 11:00:00 12.9 8 Oeste 15 Oeste 0 -- -- 46
2018-05-15 10:00:00 11.3 3 Oeste 7 Oeste 0 -- -- 53
2018-05-15 09:00:00 9.3 2 Sudoeste 9 Norte 0 -- -- 58
2018-05-15 08:00:00 7 2 Este 12 Norte 0 -- -- 66
2018-05-15 07:00:00 6 10 Sur 14 Sudeste 0 -- -- 67
2018-05-15 06:00:00 5.7 3 Sudoeste 8 Sur 0 -- -- 67
2018-05-15 05:00:00 6.4 4 Sur 14 Sudoeste 0 -- -- 65
2018-05-15 04:00:00 6.7 4 Sudoeste 14 Sur 0 -- -- 65
2018-05-15 03:00:00 7.9 6 Este 19 Sudeste 0 -- -- 57
2018-05-15 02:00:00 8.6 8 Este 18 Sudeste 0 -- -- 55
2018-05-15 01:00:00 9.7 6 Norte 10 Norte 0 -- -- 58
2018-05-15 00:00:00 9.7 8 Sudoeste 17 Nordeste 0 -- -- 59
2018-05-14 23:00:00 10.8 14 Nordeste 24 Nordeste 0 -- -- 54
2018-05-14 22:00:00 11.7 13 Nordeste 33 Nordeste 0 -- -- 48
2018-05-14 21:00:00 13.3 21 Nordeste 41 Nordeste 0 -- -- 43
2018-05-14 20:00:00 15 18 Nordeste 36 Nordeste 0 -- -- 36
2018-05-14 19:00:00 17.5 15 Norte 39 Noroeste 0 -- -- 28
2018-05-14 18:00:00 18.1 20 Noroeste 42 Noroeste 0 -- -- 25
2018-05-14 17:00:00 17.3 24 Noroeste 40 Noroeste 0 -- -- 27
2018-05-14 16:00:00 18.2 18 Noroeste 44 Noroeste 0 -- -- 27
2018-05-14 15:00:00 17.3 23 Noroeste 37 Noroeste 0 -- -- 28
2018-05-14 14:00:00 16.1 19 Norte 35 Oeste 0 -- -- 34
2018-05-14 13:00:00 16.2 19 Norte 31 Noroeste 0 -- -- 32
2018-05-14 12:00:00 14.2 5 Sudeste 22 Nordeste 0 -- -- 45
2018-05-14 11:00:00 13.1 13 Norte 24 Nordeste 0 -- -- 49
2018-05-14 10:00:00 12.6 5 Norte 15 Oeste 0 -- -- 53
2018-05-14 09:00:00 9.9 4 Oeste 12 Sudoeste 0 -- -- 62
2018-05-14 08:00:00 8.2 3 Sudeste 13 Sur 0 -- -- 71
2018-05-14 07:00:00 7.6 6 Sur 10 Sur 0 -- -- 75
2018-05-14 06:00:00 8.2 0 Calma 5 Sudoeste 0 -- -- 70
2018-05-14 05:00:00 8.1 3 Oeste 5 Oeste 0 -- -- 69
2018-05-14 04:00:00 8.5 4 Oeste 7 Nordeste 0 -- -- 66
2018-05-14 03:00:00 9.2 5 Nordeste 9 Nordeste 0 -- -- 62
2018-05-14 02:00:00 9.5 3 Nordeste 21 Nordeste 0 -- -- 60
2018-05-14 01:00:00 9.8 12 Nordeste 20 Nordeste 0 -- -- 57
2018-05-11 20:00:00 23.1 23 Nordeste 39 Nordeste 0 -- -- 40
2018-05-11 19:00:00 25.9 13 Oeste 24 Oeste 0 -- -- 27
2018-05-11 18:00:00 26 14 Oeste 29 Oeste 0 -- -- 28
2018-05-11 17:00:00 26.2 16 Oeste 39 Oeste 0 -- -- 26
2018-05-11 16:00:00 26.2 21 Oeste 36 Oeste 0 -- -- 26
2018-05-11 15:00:00 26.3 18 Oeste 33 Oeste 0 -- -- 26
2018-05-11 14:00:00 24.7 18 Oeste 32 Oeste 0 -- -- 35
2018-05-11 13:00:00 22.6 5 Oeste 18 Oeste 0 -- -- 44
2018-05-11 12:00:00 18.7 4 Sudoeste 10 Oeste 0 -- -- 51
2018-05-11 11:00:00 15.7 4 Sur 10 Nordeste 0 -- -- 54
2018-05-11 10:00:00 12 3 Noroeste 7 Noroeste 0 -- -- 65
2018-05-11 09:00:00 9.1 3 Sudoeste 6 Oeste 0 -- -- 74
2018-05-11 08:00:00 7.8 3 Nordeste 6 Nordeste 0 -- -- 76
2018-05-11 07:00:00 6.6 3 Nordeste 9 Sudeste 0 -- -- 80
2018-05-11 06:00:00 6.6 3 Sudeste 7 Sudeste 0 -- -- 79
2018-05-11 05:00:00 6.9 4 Oeste 7 Oeste 0 -- -- 80
2018-05-11 04:00:00 7.9 0 Calma 5 Sudoeste 0 -- -- 76
2018-05-11 03:00:00 8.9 3 Sudoeste 4 Noroeste 0 -- -- 72
2018-05-11 02:00:00 9.9 3 Este 5 Nordeste 0 -- -- 66
2018-05-11 01:00:00 11 4 Este 8 Este 0 -- -- 62
2018-05-11 00:00:00 11.8 4 Este 8 Sudeste 0 -- -- 59
2018-05-10 23:00:00 12.9 5 Este 19 Nordeste 0 -- -- 55
2018-05-10 22:00:00 14.1 14 Nordeste 28 Nordeste 0 -- -- 51
2018-05-10 21:00:00 16 17 Nordeste 31 Nordeste 0 -- -- 44
2018-05-10 20:00:00 18 18 Nordeste 31 Este 0 -- -- 40
2018-05-10 19:00:00 18.9 19 Nordeste 31 Nordeste 0 -- -- 37
2018-05-10 18:00:00 19.3 21 Nordeste 38 Nordeste 0 -- -- 37
2018-05-10 17:00:00 19.9 21 Nordeste 35 Nordeste 0 -- -- 36
2018-05-10 16:00:00 20.3 21 Nordeste 33 Nordeste 0 -- -- 32
2018-05-10 15:00:00 20.6 17 Nordeste 34 Este 0 -- -- 32
2018-05-10 14:00:00 20.3 8 Nordeste 21 Este 0 -- -- 32
2018-05-10 13:00:00 18.6 6 Oeste 22 Nordeste 0 -- -- 36
2018-05-10 12:00:00 17.5 4 Nordeste 13 Oeste 0 -- -- 39
2018-05-10 11:00:00 15.6 3 Sur 13 Sudoeste 0 -- -- 53
2018-05-10 10:00:00 14.2 4 Este 14 Nordeste 0 -- -- 56
2018-05-10 09:00:00 12.5 11 Nordeste 20 Este 0 -- -- 59
2018-05-10 08:00:00 12.3 7 Este 13 Este 0 -- -- 63
2018-05-10 07:00:00 12 3 Sudeste 5 Oeste 0 -- -- 67
2018-05-10 06:00:00 12.4 3 Este 9 Este 0 -- -- 63
2018-05-10 05:00:00 12.3 4 Este 10 Este 0 -- -- 64
2018-05-10 04:00:00 12.5 3 Sudeste 17 Este 0 -- -- 63
2018-05-10 03:00:00 12.9 12 Nordeste 22 Este 0 -- -- 65
2018-05-10 02:00:00 13.5 12 Este 24 Nordeste 0 -- -- 62
2018-05-10 01:00:00 13.9 16 Nordeste 31 Nordeste 0 -- -- 58
2018-05-10 00:00:00 14.4 18 Nordeste 30 Nordeste 0 -- -- 54
2018-05-09 23:00:00 15 21 Nordeste 40 Nordeste 0 -- -- 58
2018-05-09 22:00:00 16.2 26 Nordeste 41 Este 0 -- -- 56
2018-05-09 21:00:00 17.7 26 Nordeste 46 Nordeste 0 -- -- 53
2018-05-09 20:00:00 20.1 29 Nordeste 43 Nordeste 0 -- -- 45
2018-05-09 19:00:00 22.7 25 Nordeste 39 Nordeste 0 -- -- 36
2018-05-09 18:00:00 24.1 20 Nordeste 35 Nordeste 0 -- -- 33
2018-05-09 17:00:00 24.7 15 Nordeste 26 Este 0 -- -- 29
2018-05-09 16:00:00 25 12 Nordeste 22 Nordeste 0 -- -- 27
2018-05-09 15:00:00 23.5 4 Sudeste 16 Noroeste 0 -- -- 31
2018-05-09 14:00:00 22.2 5 Noroeste 13 Oeste 0 -- -- 33
2018-05-09 13:00:00 20.8 5 Sudoeste 14 Oeste 0 -- -- 37
2018-05-09 12:00:00 18.5 4 Este 11 Este 0 -- -- 47
2018-05-09 11:00:00 16.2 5 Sudoeste 11 Oeste 0 -- -- 59
2018-05-09 10:00:00 13.9 4 Sur 7 Sur 0 -- -- 68
2018-05-09 09:00:00 11.5 3 Sur 10 Sur 0 -- -- 80
2018-05-09 08:00:00 9 6 Sur 9 Sur 0 -- -- 85
2018-05-09 07:00:00 9.4 5 Norte 7 Norte 0 -- -- 84
2018-05-09 06:00:00 10.4 0 Calma 5 Sudoeste 0 -- -- 82
2018-05-09 05:00:00 11.1 4 Sur 8 Noroeste 0 -- -- 82
2018-05-09 04:00:00 12 2 Este 11 Sur 0 -- -- 79
2018-05-09 03:00:00 12.3 3 Sudoeste 8 Sudeste 0 -- -- 77
2018-05-09 02:00:00 12.8 5 Sur 13 Sudeste 0 -- -- 74
2018-05-09 01:00:00 13.4 3 Sudeste 8 Este 0 -- -- 71
2018-05-09 00:00:00 14.7 3 Sudeste 22 Este 0 -- -- 69
2018-05-08 23:00:00 15.3 18 Nordeste 26 Nordeste 0 -- -- 69
2018-05-08 22:00:00 16.3 18 Nordeste 37 Nordeste 0 -- -- 66
2018-05-08 21:00:00 18.7 16 Nordeste 30 Nordeste 0 -- -- 56
2018-05-08 20:00:00 21.3 15 Nordeste 38 Nordeste 0 -- -- 48
2018-05-08 19:00:00 22.8 25 Nordeste 40 Nordeste 0 -- -- 40
2018-05-08 18:00:00 23.8 23 Nordeste 36 Norte 0 -- -- 35
2018-05-08 17:00:00 24.4 22 Nordeste 40 Nordeste 0 -- -- 34
2018-05-08 16:00:00 24.8 21 Nordeste 40 Nordeste 0 -- -- 31
2018-05-08 15:00:00 24.3 21 Nordeste 39 Nordeste 0 -- -- 28
2018-05-08 14:00:00 22.8 11 Nordeste 27 Este 0 -- -- 43
2018-05-08 13:00:00 20.9 8 Nordeste 15 Nordeste 0 -- -- 51
2018-05-08 12:00:00 18.8 3 Este 8 Este 0 -- -- 60
2018-05-08 11:00:00 16.7 3 Sur 10 Sur 0 -- -- 66
2018-05-08 10:00:00 14.2 4 Sur 7 Sudoeste 0 -- -- 73
2018-05-08 09:00:00 12.2 0 Calma 4 Nordeste 0 -- -- 80
2018-05-08 08:00:00 11.1 2 Este 5 Sudeste 0 -- -- 83
2018-05-08 07:00:00 11.3 4 Sudeste 7 Sur 0 -- -- 82
2018-05-08 06:00:00 11.8 2 Sur 7 Sudeste 0 -- -- 80
2018-05-08 05:00:00 12.4 5 Nordeste 19 Sur 0 -- -- 79
2018-05-08 04:00:00 12.8 13 Sur 18 Sur 0 -- -- 78
2018-05-08 03:00:00 14.4 2 Nordeste 6 Sudeste 0 -- -- 72
2018-05-08 02:00:00 15.4 4 Nordeste 16 Sur 0 -- -- 69
2018-05-08 01:00:00 16.6 8 Sur 13 Sur 0 -- -- 63
2018-05-08 00:00:00 18.4 6 Sur 9 Sur 0 -- -- 55
2018-05-07 23:00:00 19.3 6 Nordeste 11 Nordeste 0 -- -- 50
2018-05-07 22:00:00 20.3 3 Este 20 Este 0 -- -- 46
2018-05-07 21:00:00 21.9 10 Este 20 Este 0 -- -- 41
2018-05-07 20:00:00 23.5 12 Nordeste 25 Nordeste 0 -- -- 37
2018-05-07 19:00:00 24.5 9 Nordeste 23 Este 0 -- -- 33
2018-05-07 18:00:00 24.4 6 Este 17 Nordeste 0 -- -- 38
2018-05-07 17:00:00 23.1 8 Noroeste 15 Noroeste 0 -- -- 41
2018-05-07 16:00:00 22.7 8 Sudoeste 14 Sudoeste 0 -- -- 43
2018-05-07 15:00:00 21.7 8 Sur 17 Sur 0 -- -- 47
2018-05-07 14:00:00 18.5 5 Sur 13 Sur 0 -- -- 63
2018-05-07 13:00:00 17.7 8 Sur 12 Sur 0 -- -- 65
2018-05-07 12:00:00 16.6 5 Sur 10 Sur 0 -- -- 65
2018-05-07 11:00:00 15.3 5 Sudoeste 9 Sudoeste 0 -- -- 75
2018-05-07 10:00:00 15.2 2 Sur 8 Sudoeste 0 -- -- 70
2018-05-07 09:00:00 13.6 4 Oeste 12 Norte 0 -- -- 78
2018-05-07 08:00:00 13.5 2 Sudeste 13 Sur 0 -- -- 73
2018-05-07 07:00:00 13.7 3 Sur 13 Sur 0 -- -- 72
2018-05-07 06:00:00 13.9 8 Sur 12 Sudeste 0 -- -- 70
2018-05-07 05:00:00 14.5 3 Este 5 Este 0 -- -- 65
2018-05-07 04:00:00 14.6 2 Este 13 Sur 0 -- -- 63
2018-05-07 03:00:00 14.5 9 Sur 14 Sudeste 0 -- -- 65
2018-05-07 02:00:00 14.9 6 Sur 8 Sur 0 -- -- 62
2018-05-07 01:00:00 16 2 Sudoeste 6 Nordeste 0 -- -- 56
2018-05-07 00:00:00 17.3 3 Noroeste 9 Sudeste 0 -- -- 51
2018-05-06 23:00:00 18.4 3 Sudeste 15 Este 0 -- -- 46
2018-05-06 22:00:00 20 6 Este 16 Este 0 -- -- 40
2018-05-06 21:00:00 22.2 8 Este 23 Este 0 -- -- 33
2018-05-06 20:00:00 22.5 14 Nordeste 27 Nordeste 0 -- -- 35
2018-05-06 19:00:00 23.1 17 Nordeste 32 Nordeste 0 -- -- 33
2018-05-06 18:00:00 24.2 18 Nordeste 31 Nordeste 0 -- -- 32
2018-05-06 17:00:00 24.6 19 Norte 31 Nordeste 0 -- -- 31
2018-05-06 16:00:00 24 15 Norte 33 Nordeste 0 -- -- 32
2018-05-06 15:00:00 22.9 13 Nordeste 27 Norte 0 -- -- 36
2018-05-06 14:00:00 22.9 9 Norte 23 Nordeste 0 -- -- 38
2018-05-06 13:00:00 21.4 9 Norte 23 Norte 0 -- -- 42
2018-05-06 12:00:00 19.3 6 Noroeste 10 Noroeste 0 -- -- 45
2018-05-06 11:00:00 17 3 Nordeste 9 Nordeste 0 -- -- 58
2018-05-06 10:00:00 14.2 2 Oeste 6 Noroeste 0 -- -- 68
2018-05-06 09:00:00 11.3 3 Oeste 5 Oeste 0 -- -- 78
2018-05-06 08:00:00 9.7 3 Sudoeste 5 Sudeste 0 -- -- 83
2018-05-06 07:00:00 9.5 4 Sudeste 9 Sur 0 -- -- 83
2018-05-06 06:00:00 10.7 6 Sur 9 Sur 0 -- -- 80
2018-05-06 05:00:00 11.8 0 Calma 7 Sur 0 -- -- 76
2018-05-06 04:00:00 12.7 5 Sudeste 9 Sudeste 0 -- -- 72
2018-05-06 03:00:00 13.9 5 Sur 10 Sur 0 -- -- 69
2018-05-06 02:00:00 15.2 3 Sudeste 21 Nordeste 0 -- -- 63
2018-05-06 01:00:00 16.2 10 Nordeste 27 Nordeste 0 -- -- 59
2018-05-06 00:00:00 16.4 14 Nordeste 28 Nordeste 0 -- -- 59
2018-05-05 23:00:00 17.2 14 Nordeste 31 Nordeste 0 -- -- 55
2018-05-05 22:00:00 18 15 Nordeste 33 Nordeste 0 -- -- 51
2018-05-05 21:00:00 19.1 23 Nordeste 39 Este 0 -- -- 46
2018-05-05 20:00:00 20.7 24 Nordeste 40 Nordeste 0 -- -- 41
2018-05-05 19:00:00 20.6 25 Nordeste 39 Nordeste 0 -- -- 40
2018-05-05 18:00:00 22.2 19 Nordeste 32 Nordeste 0 -- -- 33
2018-05-05 17:00:00 22.7 23 Nordeste 35 Nordeste 0 -- -- 32
2018-05-05 16:00:00 22.9 14 Norte 24 Norte 0 -- -- 33
2018-05-05 15:00:00 21.6 8 Nordeste 21 Norte 0 -- -- 34
2018-05-05 14:00:00 19.9 9 Norte 19 Nordeste 0 -- -- 38
2018-05-05 13:00:00 18.4 5 Este 13 Nordeste 0 -- -- 40
2018-05-05 12:00:00 15.7 4 Sur 10 Oeste 0 -- -- 47
2018-05-05 11:00:00 12.5 5 Nordeste 11 Nordeste 0 -- -- 57
2018-05-05 10:00:00 10.3 3 Norte 5 Norte 0 -- -- 64
2018-05-05 09:00:00 7.6 2 Oeste 5 Sudoeste 0 -- -- 75
2018-05-05 08:00:00 5.6 2 Sudoeste 4 Sudoeste 0 -- -- 80
2018-05-05 07:00:00 5.2 0 Calma 6 Sur 0 -- -- 81
2018-05-05 06:00:00 5.5 6 Sur 10 Sur 0 -- -- 81
2018-05-05 05:00:00 6.6 5 Sur 9 Sur 0 -- -- 76
2018-05-05 04:00:00 7.2 3 Sudeste 6 Nordeste 0 -- -- 72
2018-05-05 03:00:00 7.7 4 Sudeste 14 Sur 0 -- -- 72
2018-05-05 02:00:00 8.5 5 Sur 8 Sur 0 -- -- 68
2018-05-05 01:00:00 9.6 2 Sudoeste 6 Nordeste 0 -- -- 64
2018-05-05 00:00:00 10.9 3 Este 25 Nordeste 0 -- -- 58
2018-05-04 23:00:00 11.8 15 Nordeste 26 Nordeste 0 -- -- 56
2018-05-04 22:00:00 12.5 18 Nordeste 31 Nordeste 0 -- -- 53
2018-05-04 21:00:00 14 23 Nordeste 32 Este 0 -- -- 49
2018-05-04 20:00:00 16.4 19 Nordeste 36 Nordeste 0 -- -- 41
2018-05-04 19:00:00 17.5 22 Nordeste 37 Nordeste 0 -- -- 38
2018-05-04 18:00:00 18.5 21 Nordeste 40 Nordeste 0 -- -- 35
2018-05-04 17:00:00 18.8 21 Nordeste 34 Nordeste 0 -- -- 33
2018-05-04 16:00:00 19.1 12 Nordeste 27 Nordeste 0 -- -- 32
2018-05-04 15:00:00 19.7 6 Sudeste 25 Nordeste 0 -- -- 32
2018-05-04 14:00:00 17.5 8 Este 17 Noroeste 0 -- -- 33
2018-05-04 13:00:00 16.2 8 Noroeste 17 Oeste 0 -- -- 37
2018-05-04 12:00:00 14.4 5 Noroeste 18 Norte 0 -- -- 41
2018-05-04 11:00:00 12.2 3 Norte 13 Sudoeste 0 -- -- 48
2018-05-04 10:00:00 10.2 4 Sudoeste 10 Sur 0 -- -- 58
2018-05-04 09:00:00 6.7 4 Sur 9 Sudoeste 0 -- -- 69
2018-05-04 08:00:00 3.7 5 Sur 14 Sur 0 -- -- 77
2018-05-04 07:00:00 2.1 7 Sur 12 Sur 0 -- -- 81
2018-05-04 06:00:00 3.9 4 Sur 9 Sudeste 0 -- -- 76
2018-05-04 05:00:00 4.3 5 Sudoeste 9 Sudoeste 0 -- -- 75
2018-05-04 04:00:00 5.2 4 Sur 8 Sudeste 0 -- -- 69
2018-05-04 03:00:00 5.6 3 Este 8 Este 0 -- -- 67
2018-05-04 02:00:00 6.7 4 Este 17 Sur 0 -- -- 63
2018-05-04 01:00:00 7.3 8 Sudeste 12 Sudeste 0 -- -- 60
2018-05-04 00:00:00 8.3 6 Sur 21 Nordeste 0 -- -- 56
2018-05-03 23:00:00 9.3 10 Nordeste 27 Nordeste 0 -- -- 54
2018-05-03 22:00:00 10.1 19 Nordeste 32 Nordeste 0 -- -- 53
2018-05-03 21:00:00 11.6 19 Nordeste 40 Nordeste 0 -- -- 48
2018-05-03 20:00:00 13.7 27 Nordeste 44 Nordeste 0 -- -- 42
2018-05-03 19:00:00 14.9 24 Nordeste 37 Nordeste 0 -- -- 39
2018-05-03 18:00:00 15.9 18 Nordeste 34 Nordeste 0 -- -- 36
2018-05-03 17:00:00 14.9 16 Nordeste 34 Nordeste 0 -- -- 39
2018-05-03 16:00:00 14.5 19 Nordeste 35 Nordeste 0 -- -- 40
2018-05-03 15:00:00 14.9 22 Nordeste 51 Nordeste 0 -- -- 40
2018-05-03 14:00:00 14.3 32 Nordeste 48 Nordeste 0 -- -- 40
2018-05-03 13:00:00 15.4 25 Nordeste 50 Nordeste 0 -- -- 33
2018-05-03 12:00:00 14.9 10 Nordeste 29 Nordeste 0 -- -- 34
2018-05-03 11:00:00 13 16 Noroeste 32 Noroeste 0 -- -- 40
2018-05-03 10:00:00 13.1 12 Nordeste 28 Norte 0 -- -- 44
2018-05-03 09:00:00 12.3 15 Norte 42 Noroeste 0 -- -- 51
2018-05-03 08:00:00 11 4 Norte 19 Noroeste 0 -- -- 69
2018-05-03 07:00:00 11 5 Norte 16 Nordeste 0 -- -- 72
2018-05-03 06:00:00 11.3 2 Sudoeste 7 Sur 0 -- -- 65
2018-05-03 05:00:00 11.3 0 Calma 15 Noroeste 0 -- -- 65
2018-05-03 04:00:00 12.6 8 Noroeste 15 Noroeste 0 -- -- 60
2018-05-03 03:00:00 12.7 4 Sudoeste 14 Noroeste 0 -- -- 59
2018-05-03 02:00:00 12.8 6 Noroeste 11 Noroeste 0 -- -- 59
2018-05-03 01:00:00 12.8 7 Sur 10 Sur 0 -- -- 61
2018-05-03 00:00:00 13.2 3 Este 12 Nordeste 0 -- -- 60
2018-05-02 23:00:00 13.8 7 Nordeste 25 Noroeste 0 -- -- 56
2018-05-02 22:00:00 14.7 10 Norte 20 Norte 0 -- -- 49
2018-05-02 21:00:00 15.1 11 Nordeste 27 Nordeste 0 -- -- 47
2018-05-02 20:00:00 16.4 16 Nordeste 26 Nordeste 0 -- -- 41
2018-05-02 19:00:00 17.5 12 Nordeste 19 Nordeste 0 -- -- 32
2018-05-02 18:00:00 17.8 12 Norte 27 Norte 0 -- -- 31
2018-05-02 17:00:00 18 13 Norte 35 Noroeste 0 -- -- 24
2018-05-02 16:00:00 18 18 Noroeste 43 Oeste 0 -- -- 24
2018-05-02 15:00:00 18.3 20 Oeste 41 Oeste 0 -- -- 27
2018-05-02 14:00:00 16.2 18 Oeste 48 Oeste 0 -- -- 31
2018-05-02 13:00:00 14.8 26 Noroeste 46 Oeste 0 -- -- 33
2018-05-02 12:00:00 13.6 17 Oeste 32 Oeste 0 -- -- 40
2018-05-02 11:00:00 11.6 8 Oeste 19 Oeste 0 -- -- 47
2018-05-02 10:00:00 7.6 5 Sur 9 Sur 0 -- -- 64
2018-05-02 09:00:00 4.9 4 Sur 6 Sur 0 -- -- 75
2018-05-02 08:00:00 3.6 0 Calma 5 Sur 0 -- -- 80
2018-05-02 07:00:00 2.3 2 Este 7 Sudeste 0 -- -- 81
2018-05-02 06:00:00 2 3 Este 7 Sur 0 -- -- 81
2018-05-02 05:00:00 2.9 4 Sur 8 Sur 0 -- -- 78
2018-05-02 04:00:00 3.1 3 Sudeste 9 Sudoeste 0 -- -- 77
2018-05-02 03:00:00 4.1 5 Sur 13 Sur 0 -- -- 74
2018-05-02 02:00:00 5.6 10 Sur 15 Sur 0 -- -- 68
2018-05-02 01:00:00 6.5 4 Sur 12 Sur 0 -- -- 63
2018-05-02 00:00:00 8 4 Sudeste 9 Sudeste 0 -- -- 58
2018-05-01 23:00:00 9.4 5 Este 27 Nordeste 0 -- -- 53
2018-05-01 22:00:00 10.6 16 Nordeste 27 Nordeste 0 -- -- 49
2018-05-01 21:00:00 11.8 14 Nordeste 31 Nordeste 0 -- -- 44
2018-05-01 20:00:00 13.8 19 Nordeste 30 Nordeste 0 -- -- 35
2018-05-01 19:00:00 15 12 Nordeste 28 Nordeste 0 -- -- 31
2018-05-01 18:00:00 15 18 Nordeste 28 Nordeste 0 -- -- 28
2018-05-01 17:00:00 14.9 9 Nordeste 22 Norte 0 -- -- 30
2018-05-01 16:00:00 15.4 5 Norte 16 Noroeste 0 -- -- 30
2018-05-01 15:00:00 13.4 4 Sudoeste 18 Este 0 -- -- 34
2018-05-01 14:00:00 13.2 5 Este 18 Este 0 -- -- 37
2018-05-01 13:00:00 13.2 6 Este 17 Norte 0 -- -- 37
2018-05-01 12:00:00 11.7 4 Oeste 14 Noroeste 0 -- -- 45
2018-05-01 11:00:00 9.4 3 Sudeste 14 Sudoeste 0 -- -- 52
2018-05-01 10:00:00 7.5 3 Sudoeste 7 Sudoeste 0 -- -- 64
2018-05-01 09:00:00 4.9 3 Sudoeste 6 Sudoeste 0 -- -- 73
2018-05-01 08:00:00 2.8 5 Sur 14 Sur 0 -- -- 84
2018-05-01 07:00:00 3.4 3 Nordeste 10 Sudoeste 0 -- -- 82
2018-05-01 06:00:00 4 6 Sur 11 Sur 0 -- -- 81
2018-05-01 05:00:00 4.3 4 Noroeste 8 Oeste 0 -- -- 79
2018-05-01 04:00:00 5 6 Sudoeste 11 Sudoeste 0 -- -- 77
2018-05-01 03:00:00 5.4 5 Sudoeste 8 Oeste 0 -- -- 76
2018-05-01 02:00:00 5.6 4 Sudoeste 8 Sudoeste 0 -- -- 74
2018-05-01 01:00:00 6.4 4 Sudoeste 7 Norte 0 -- -- 71
2018-05-01 00:00:00 6.7 4 Sudoeste 12 Sudoeste 0 -- -- 69
2018-04-30 23:00:00 7.3 4 Sudoeste 13 Noroeste 0 -- -- 65
2018-04-30 22:00:00 7.9 7 Oeste 13 Sudoeste 0 -- -- 62
2018-04-30 21:00:00 8.5 6 Oeste 26 Oeste 0 -- -- 55
2018-04-30 20:00:00 8.9 14 Oeste 27 Oeste 0 -- -- 53
2018-04-30 19:00:00 10.6 11 Sudoeste 31 Sudoeste 0 -- -- 52
2018-04-30 18:00:00 10.9 15 Sudoeste 33 Oeste 0 -- -- 47
2018-04-30 17:00:00 11.4 17 Oeste 33 Oeste 0 -- -- 43
2018-04-30 16:00:00 11.7 12 Oeste 30 Sudoeste 0 -- -- 46
2018-04-30 15:00:00 9.5 12 Sudoeste 35 Sudoeste 0 -- -- 54
2018-04-30 14:00:00 11.7 9 Sudoeste 25 Oeste 0 -- -- 40
2018-04-30 13:00:00 11.4 10 Sudoeste 23 Sudoeste 0 -- -- 43
2018-04-30 12:00:00 10.8 11 Oeste 26 Sudoeste 0 -- -- 42
2018-04-30 11:00:00 9 14 Oeste 27 Oeste 0 -- -- 50
2018-04-30 10:00:00 7.6 11 Oeste 19 Oeste 0 -- -- 59
2018-04-30 09:00:00 5.2 3 Oeste 8 Sur 0 -- -- 71
2018-04-30 08:00:00 3.4 6 Sur 9 Sur 0 -- -- 78
2018-04-30 07:00:00 3.4 6 Sur 9 Sur 0 -- -- 78
2018-04-30 06:00:00 4.1 5 Sur 12 Sudoeste 0 -- -- 75
2018-04-30 05:00:00 4.8 8 Oeste 15 Sudoeste 0 -- -- 73
2018-04-30 04:00:00 5.7 10 Sudoeste 21 Sudoeste 0 -- -- 70
2018-04-30 03:00:00 6.7 14 Oeste 28 Sudoeste 0 -- -- 67
2018-04-30 02:00:00 7.9 15 Sudoeste 24 Sudoeste 0 -- -- 65
2018-04-30 01:00:00 7.6 11 Sudoeste 17 Sudoeste 0 -- -- 68
2018-04-30 00:00:00 7.8 6 Sur 10 Sur 0 -- -- 64
2018-04-29 23:00:00 8 7 Sudoeste 44 Oeste 0 -- -- 64
2018-04-29 22:00:00 9.1 13 Sudoeste 40 Oeste 0 -- -- 61
2018-04-29 21:00:00 11 23 Sudoeste 37 Sudoeste 0 -- -- 47
2018-04-29 20:00:00 12.8 17 Oeste 42 Sudoeste 0 -- -- 45
2018-04-29 19:00:00 12.9 30 Oeste 52 Oeste 0 -- -- 45
2018-04-29 18:00:00 12.8 35 Oeste 57 Oeste 0 -- -- 45
2018-04-29 17:00:00 14.3 32 Oeste 54 Oeste 0 -- -- 43
2018-04-29 16:00:00 13.1 30 Oeste 51 Sudoeste 0 -- -- 45
2018-04-29 15:00:00 11.4 21 Oeste 57 Oeste 0 -- -- 52
2018-04-29 14:00:00 11.5 30 Oeste 53 Oeste 0.2 -- -- 55
2018-04-29 13:00:00 9 26 Oeste 48 Oeste 0 -- -- 73
2018-04-29 12:00:00 8.3 28 Sudoeste 48 Sudoeste 0.2 -- -- 74
2018-04-29 11:00:00 9.7 11 Oeste 23 Sudoeste 0 -- -- 64
2018-04-29 10:00:00 9.3 11 Oeste 19 Oeste 0 -- -- 62
2018-04-29 09:00:00 8.8 4 Sudoeste 8 Sudoeste 0 -- -- 64
2018-04-29 08:00:00 7.7 5 Oeste 22 Sudoeste 0 -- -- 66
2018-04-29 07:00:00 7.8 9 Sudoeste 15 Sudoeste 0 -- -- 66
2018-04-29 06:00:00 8.7 4 Sudoeste 9 Sudoeste 0 -- -- 67
2018-04-29 05:00:00 9.7 5 Sudoeste 8 Sur 0 -- -- 64
2018-04-29 04:00:00 10.5 4 Sur 13 Sur 0 -- -- 53
2018-04-29 03:00:00 10.3 7 Sur 9 Sur 0 -- -- 57
2018-04-29 02:00:00 10.4 3 Sur 14 Sudoeste 0 -- -- 58
2018-04-29 01:00:00 11 8 Sudoeste 15 Sudoeste 0 -- -- 54
2018-04-29 00:00:00 12 10 Sudoeste 22 Sudoeste 0 -- -- 52
2018-04-28 23:00:00 13.4 15 Sudoeste 31 Sudoeste 0 -- -- 47
2018-04-28 22:00:00 14.9 14 Sudoeste 25 Sur 0 -- -- 51
2018-04-28 21:00:00 16.9 14 Sur 31 Sur 0 -- -- 45
2018-04-28 20:00:00 18.3 15 Sudoeste 32 Sudoeste 0 -- -- 44
2018-04-28 19:00:00 14.8 10 Oeste 38 Sudoeste 0.6 -- -- 66
2018-04-28 18:00:00 20.1 17 Sudoeste 36 Sur 0 -- -- 30
2018-04-28 17:00:00 21 21 Sudoeste 40 Sudoeste 0 -- -- 31
2018-04-28 16:00:00 21.4 23 Sudoeste 50 Sudoeste 0 -- -- 30
2018-04-28 15:00:00 20.6 23 Sudoeste 44 Sudoeste 0 -- -- 31
2018-04-28 14:00:00 20.3 18 Oeste 36 Oeste 0 -- -- 38
2018-04-28 13:00:00 18.6 8 Sudoeste 17 Oeste 0 -- -- 48
2018-04-28 12:00:00 15.8 4 Nordeste 12 Nordeste 0 -- -- 59
2018-04-28 11:00:00 14.3 6 Norte 14 Nordeste 0 -- -- 62
2018-04-28 10:00:00 12.7 4 Norte 10 Nordeste 0 -- -- 67
2018-04-28 09:00:00 10.1 3 Oeste 6 Oeste 0 -- -- 79
2018-04-28 08:00:00 9.4 2 Norte 9 Norte 0 -- -- 81
2018-04-28 07:00:00 8.6 4 Este 9 Este 0 -- -- 81
2018-04-28 06:00:00 8.8 7 Nordeste 10 Nordeste 0 -- -- 81
2018-04-28 05:00:00 9.5 4 Nordeste 8 Este 0 -- -- 79
2018-04-28 04:00:00 10 0 Calma 3 Noroeste 0 -- -- 76
2018-04-28 03:00:00 10.8 2 Este 7 Sudeste 0 -- -- 74
2018-04-28 02:00:00 11.5 4 Sudeste 13 Sudeste 0 -- -- 72
2018-04-28 01:00:00 13 4 Este 14 Este 0 -- -- 69
2018-04-28 00:00:00 14.4 2 Sudoeste 14 Nordeste 0 -- -- 66
2018-04-27 23:00:00 15.9 9 Nordeste 18 Nordeste 0 -- -- 59
2018-04-27 22:00:00 16.8 12 Nordeste 27 Nordeste 0 -- -- 59
2018-04-27 21:00:00 18 18 Nordeste 35 Nordeste 0 -- -- 54
2018-04-27 20:00:00 20.1 18 Nordeste 37 Este 0 -- -- 45
2018-04-27 19:00:00 22 22 Nordeste 34 Nordeste 0 -- -- 42
2018-04-27 18:00:00 22.8 20 Nordeste 33 Nordeste 0 -- -- 46
2018-04-27 17:00:00 23 17 Nordeste 30 Nordeste 0 -- -- 44
2018-04-27 16:00:00 23.9 13 Norte 23 Norte 0 -- -- 42
2018-04-27 15:00:00 21.7 4 Noroeste 35 Oeste 0.6 -- -- 52
2018-04-27 14:00:00 21.9 10 Oeste 26 Oeste 0 -- -- 45
2018-04-27 13:00:00 23.3 9 Noroeste 23 Oeste 0 -- -- 44
2018-04-27 12:00:00 20.7 6 Sudoeste 17 Sur 0 -- -- 52
2018-04-27 11:00:00 18 3 Sudoeste 7 Noroeste 0 -- -- 56
2018-04-27 10:00:00 14.7 3 Noroeste 6 Norte 0 -- -- 68
2018-04-27 09:00:00 11.8 2 Noroeste 5 Noroeste 0 -- -- 77
2018-04-27 08:00:00 10.3 3 Nordeste 6 Norte 0 -- -- 82
2018-04-27 07:00:00 10 4 Nordeste 6 Nordeste 0 -- -- 83
2018-04-27 06:00:00 10.3 4 Sudoeste 8 Sur 0 -- -- 82
2018-04-27 05:00:00 10.9 0 Calma 4 Este 0 -- -- 76
2018-04-27 04:00:00 11.8 0 Calma 4 Este 0 -- -- 74
2018-04-27 03:00:00 12.7 0 Calma 4 Sur 0 -- -- 70
2018-04-27 02:00:00 13.3 3 Sur 6 Sudoeste 0 -- -- 68
2018-04-27 01:00:00 14.1 2 Sur 6 Sudeste 0 -- -- 64
2018-04-27 00:00:00 15.1 3 Este 9 Este 0 -- -- 58
2018-04-26 23:00:00 16.1 3 Este 12 Nordeste 0 -- -- 54
2018-04-26 22:00:00 17.1 5 Este 14 Nordeste 0 -- -- 49
2018-04-26 21:00:00 18.2 13 Nordeste 28 Nordeste 0 -- -- 46
2018-04-26 20:00:00 20.2 17 Nordeste 30 Nordeste 0 -- -- 40
2018-04-26 19:00:00 21.4 22 Nordeste 31 Nordeste 0 -- -- 37
2018-04-26 18:00:00 22.1 22 Nordeste 33 Nordeste 0 -- -- 35
2018-04-26 17:00:00 22.1 20 Nordeste 30 Norte 0 -- -- 36
2018-04-26 16:00:00 22.6 14 Norte 24 Nordeste 0 -- -- 37
2018-04-26 15:00:00 21.6 8 Norte 18 Nordeste 0 -- -- 39
2018-04-26 14:00:00 20.1 7 Norte 19 Norte 0 -- -- 44
2018-04-26 13:00:00 18.2 5 Noroeste 14 Noroeste 0 -- -- 48
2018-04-26 12:00:00 16.1 3 Oeste 12 Norte 0 -- -- 56
2018-04-26 11:00:00 14.2 4 Norte 9 Este 0 -- -- 61
2018-04-26 10:00:00 12.6 2 Este 6 Este 0 -- -- 68
2018-04-26 09:00:00 9.9 3 Oeste 6 Sur 0 -- -- 81
2018-04-26 08:00:00 8.4 3 Sur 8 Sur 0 -- -- 85
2018-04-26 07:00:00 8.4 5 Oeste 6 Oeste 0 -- -- 83
2018-04-26 06:00:00 9.6 4 Nordeste 12 Este 0 -- -- 78
2018-04-26 05:00:00 10.3 3 Sudeste 16 Nordeste 0 -- -- 75
2018-04-26 04:00:00 11.2 13 Nordeste 21 Nordeste 0 -- -- 71
2018-04-26 03:00:00 11.4 2 Nordeste 8 Norte 0 -- -- 75
2018-04-26 02:00:00 12 4 Sudeste 27 Nordeste 0 -- -- 73
2018-04-26 01:00:00 12.9 11 Este 34 Nordeste 0 -- -- 70
2018-04-26 00:00:00 13.5 24 Nordeste 40 Nordeste 0 -- -- 71
2018-04-25 23:00:00 14.1 9 Nordeste 37 Nordeste 0 -- -- 67
2018-04-25 22:00:00 15.2 21 Nordeste 46 Nordeste 0 -- -- 66
2018-04-25 21:00:00 17.7 29 Nordeste 43 Nordeste 0 -- -- 60
2018-04-25 20:00:00 21.2 25 Nordeste 42 Nordeste 0 -- -- 49
2018-04-25 19:00:00 23.7 22 Nordeste 40 Nordeste 0 -- -- 39
2018-04-25 18:00:00 24.5 19 Nordeste 37 Este 0 -- -- 34
2018-04-25 17:00:00 24.5 18 Nordeste 39 Nordeste 0 -- -- 32
2018-04-25 16:00:00 23.9 28 Nordeste 40 Nordeste 0 -- -- 27
2018-04-25 15:00:00 23.5 26 Nordeste 40 Nordeste 0 -- -- 32
2018-04-25 14:00:00 23.1 22 Nordeste 37 Nordeste 0 -- -- 35
2018-04-25 13:00:00 22.2 23 Nordeste 34 Nordeste 0 -- -- 29
2018-04-25 12:00:00 20.2 9 Nordeste 13 Norte 0 -- -- 44
2018-04-25 11:00:00 16.2 3 Sudoeste 7 Noroeste 0 -- -- 64
2018-04-25 10:00:00 13.1 4 Noroeste 6 Noroeste 0 -- -- 74
2018-04-25 09:00:00 10.8 0 Calma 7 Sur 0 -- -- 83
2018-04-25 08:00:00 9.6 4 Nordeste 7 Sudeste 0 -- -- 86
2018-04-25 07:00:00 9.4 4 Este 9 Nordeste 0 -- -- 86
2018-04-25 06:00:00 10.3 5 Sur 10 Sudeste 0 -- -- 83
2018-04-25 05:00:00 11.1 5 Sur 6 Sur 0 -- -- 81
2018-04-25 04:00:00 11.6 0 Calma 6 Sudoeste 0 -- -- 78
2018-04-25 03:00:00 12.7 4 Sur 12 Sur 0 -- -- 75
2018-04-25 02:00:00 13.7 4 Sur 8 Sur 0 -- -- 72
2018-04-25 01:00:00 15.2 7 Sur 11 Sur 0 -- -- 66
2018-04-25 00:00:00 15.4 8 Sudoeste 12 Sur 0 -- -- 68